Time;durP1;ratioP1;P1;durP2;ratioP2;P2;SDS_P1;SDS_P2;PMS_P1;PMS_P2;Temp;Humidity;BMP_temperature;BMP_pressure;BME280_temperature;BME280_humidity;BME280_pressure;Samples;Min_cycle;Max_cycle;Signal;HPM_P1;HPM_P2
2023/01/11 00:01:03;;;;;;;17.87;8.07;;;;;;;;;;5030374;28;20031;-77
2023/01/11 00:03:30;;;;;;;26.10;9.07;;;;;;;;;;5029224;28;20317;-79
2023/01/11 00:05:57;;;;;;;19.30;7.50;;;;;;;;;;5031835;28;20056;-78
2023/01/11 00:08:24;;;;;;;18.37;7.70;;;;;;;;;;5013482;28;20346;-79
2023/01/11 00:10:50;;;;;;;20.50;7.33;;;;;;;;;;5030511;28;20021;-79
2023/01/11 00:13:16;;;;;;;17.50;7.50;;;;;;;;;;5030290;28;20036;-82
2023/01/11 00:15:42;;;;;;;18.60;6.77;;;;;;;;;;5032071;28;20037;-82
2023/01/11 00:18:08;;;;;;;16.80;6.63;;;;;;;;;;5013674;28;20053;-83
2023/01/11 00:20:34;;;;;;;12.87;6.33;;;;;;;;;;5022396;28;20520;-81
2023/01/11 00:23:01;;;;;;;16.57;6.50;;;;;;;;;;5023060;28;20125;-81
2023/01/11 00:25:27;;;;;;;14.53;6.57;;;;;;;;;;5029710;28;20112;-81
2023/01/11 00:27:53;;;;;;;16.60;6.90;;;;;;;;;;5030126;28;20116;-82
2023/01/11 00:30:21;;;;;;;21.00;7.63;;;;;;;;;;5030741;28;20564;-82
2023/01/11 00:32:47;;;;;;;17.50;6.67;;;;;;;;;;5035104;28;20466;-84
2023/01/11 00:35:13;;;;;;;18.47;6.93;;;;;;;;;;5035866;28;20048;-80
2023/01/11 00:37:39;;;;;;;16.17;7.30;;;;;;;;;;5029387;28;20128;-84
2023/01/11 00:40:05;;;;;;;14.40;6.27;;;;;;;;;;5031366;28;20026;-82
2023/01/11 00:48:00;;;;;;;14.30;6.83;;;;;;;;;;5031104;28;20086;-82
2023/01/11 00:50:28;;;;;;;14.83;6.03;;;;;;;;;;5029515;28;20477;-84
2023/01/11 00:52:56;;;;;;;13.70;5.97;;;;;;;;;;5026593;28;20713;-84
2023/01/11 00:55:21;;;;;;;18.83;6.03;;;;;;;;;;5009985;28;20079;-85
2023/01/11 00:57:47;;;;;;;13.67;6.00;;;;;;;;;;5021863;28;20166;-84
2023/01/11 01:00:13;;;;;;;18.47;7.03;;;;;;;;;;5030353;28;20048;-83
2023/01/11 01:02:39;;;;;;;16.07;6.67;;;;;;;;;;5031531;28;20116;-87
2023/01/11 01:05:05;;;;;;;15.07;6.07;;;;;;;;;;5014628;28;20053;-82
2023/01/11 01:07:31;;;;;;;18.07;6.97;;;;;;;;;;5029175;28;20060;-82
2023/01/11 01:09:56;;;;;;;15.17;6.03;;;;;;;;;;5031419;28;20789;-83
2023/01/11 01:15:06;;;;;;;16.00;6.63;;;;;;;;;;5010493;28;20195;-82
2023/01/11 01:17:32;;;;;;;16.83;6.40;;;;;;;;;;5017549;28;20541;-82
2023/01/11 01:19:57;;;;;;;15.37;6.73;;;;;;;;;;5028757;28;20028;-83
2023/01/11 01:22:26;;;;;;;15.30;6.37;;;;;;;;;;5029386;28;20489;-80
2023/01/11 01:24:51;;;;;;;14.13;6.10;;;;;;;;;;5026724;28;20026;-82
2023/01/11 01:27:18;;;;;;;13.40;6.27;;;;;;;;;;5014996;28;20072;-82
2023/01/11 01:29:44;;;;;;;13.47;6.00;;;;;;;;;;5028887;28;20108;-81
2023/01/11 01:32:10;;;;;;;16.20;6.13;;;;;;;;;;5029204;28;20127;-83
2023/01/11 01:34:36;;;;;;;17.50;5.73;;;;;;;;;;5032276;28;20079;-82
2023/01/11 01:37:06;;;;;;;16.40;5.33;;;;;;;;;;5042679;28;20025;-81
2023/01/11 01:39:33;;;;;;;17.97;7.47;;;;;;;;;;5028640;28;20022;-83
2023/01/11 01:41:59;;;;;;;21.47;5.73;;;;;;;;;;5028635;28;20076;-82
2023/01/11 01:44:52;;;;;;;19.80;6.87;;;;;;;;;;5028145;28;20053;-82
2023/01/11 01:47:23;;;;;;;15.20;5.83;;;;;;;;;;5030745;28;20021;-82
2023/01/11 01:49:49;;;;;;;16.50;6.90;;;;;;;;;;5014915;28;20469;-80
2023/01/11 01:52:15;;;;;;;18.23;7.03;;;;;;;;;;5033179;28;20465;-83
2023/01/11 01:54:45;;;;;;;16.63;6.60;;;;;;;;;;5039927;28;20060;-81
2023/01/11 01:57:19;;;;;;;14.53;6.20;;;;;;;;;;5038521;28;20041;-86
2023/01/11 01:59:50;;;;;;;14.90;6.27;;;;;;;;;;5031215;28;20105;-82
2023/01/11 02:02:18;;;;;;;18.90;6.28;;;;;;;;;;5028314;28;20025;-81
2023/01/11 02:04:47;;;;;;;14.57;5.93;;;;;;;;;;5028348;28;20052;-83
2023/01/11 02:07:17;;;;;;;15.63;6.30;;;;;;;;;;5028103;28;20114;-83
2023/01/11 02:09:51;;;;;;;12.63;5.83;;;;;;;;;;5028758;28;20026;-83
2023/01/11 02:12:18;;;;;;;11.87;5.13;;;;;;;;;;5032575;28;20036;-82
2023/01/11 02:14:46;;;;;;;19.27;6.53;;;;;;;;;;5028229;28;20032;-82
2023/01/11 02:17:12;;;;;;;15.87;5.80;;;;;;;;;;5027934;28;20029;-82
2023/01/11 02:19:41;;;;;;;14.67;5.90;;;;;;;;;;5029207;28;20025;-81
2023/01/11 02:22:54;;;;;;;13.13;4.70;;;;;;;;;;5029519;28;20025;-80
2023/01/11 02:25:56;;;;;;;14.00;5.10;;;;;;;;;;5012675;28;20061;-78
2023/01/11 02:28:37;;;;;;;9.60;4.80;;;;;;;;;;5028427;28;20029;-83
2023/01/11 02:31:29;;;;;;;10.30;4.57;;;;;;;;;;5032284;28;20029;-81
2023/01/11 02:34:03;;;;;;;19.48;5.07;;;;;;;;;;5031822;28;20121;-82
2023/01/11 02:36:45;;;;;;;8.83;4.50;;;;;;;;;;5032065;28;20068;-82
2023/01/11 02:39:53;;;;;;;9.80;4.55;;;;;;;;;;5033687;28;20029;-83
2023/01/11 02:45:49;;;;;;;10.80;4.67;;;;;;;;;;5035056;28;20086;-83
2023/01/11 02:48:29;;;;;;;15.70;5.17;;;;;;;;;;4998833;28;20089;-81
2023/01/11 02:51:16;;;;;;;13.13;4.70;;;;;;;;;;4977034;28;20509;-83
2023/01/11 02:54:01;;;;;;;12.77;4.17;;;;;;;;;;5021300;28;20033;-82
2023/01/11 02:56:31;;;;;;;10.00;4.17;;;;;;;;;;5012565;28;20754;-80
2023/01/11 02:58:58;;;;;;;13.10;4.57;;;;;;;;;;5032270;28;20107;-83
2023/01/11 03:01:24;;;;;;;12.53;4.43;;;;;;;;;;5032600;28;20022;-83
2023/01/11 03:03:51;;;;;;;11.70;4.47;;;;;;;;;;5031327;28;20028;-81
2023/01/11 03:06:21;;;;;;;10.63;3.53;;;;;;;;;;5031972;28;20037;-80
2023/01/11 03:08:52;;;;;;;10.70;4.77;;;;;;;;;;5015278;28;20034;-83
2023/01/11 03:14:59;;;;;;;12.33;4.60;;;;;;;;;;5041775;28;20044;-81
2023/01/11 03:17:43;;;;;;;9.10;3.73;;;;;;;;;;5032543;28;20033;-84
2023/01/11 03:20:31;;;;;;;10.30;4.20;;;;;;;;;;5032143;28;20078;-81
2023/01/11 03:23:09;;;;;;;15.27;4.37;;;;;;;;;;5016227;28;20270;-81
2023/01/11 03:25:50;;;;;;;11.00;4.33;;;;;;;;;;5021384;28;20097;-83
2023/01/11 03:28:34;;;;;;;12.97;4.77;;;;;;;;;;5025667;28;20029;-83
2023/01/11 03:31:05;;;;;;;10.13;4.47;;;;;;;;;;5033320;28;20029;-81
2023/01/11 03:33:42;;;;;;;10.30;3.93;;;;;;;;;;5032143;28;20141;-81
2023/01/11 03:36:27;;;;;;;12.40;4.53;;;;;;;;;;5041212;28;20025;-81
2023/01/11 03:39:42;;;;;;;10.13;4.30;;;;;;;;;;5030638;28;20060;-82
2023/01/11 03:42:09;;;;;;;8.93;4.03;;;;;;;;;;5019980;28;20073;-83
2023/01/11 03:44:41;;;;;;;7.70;4.20;;;;;;;;;;5031891;28;20037;-82
2023/01/11 03:47:11;;;;;;;12.03;3.87;;;;;;;;;;5031910;28;20432;-83
2023/01/11 03:49:58;;;;;;;10.98;4.53;;;;;;;;;;5014408;28;20059;-81
2023/01/11 03:52:33;;;;;;;10.83;3.90;;;;;;;;;;5030535;28;20044;-81
2023/01/11 03:55:03;;;;;;;9.83;4.23;;;;;;;;;;5013761;28;20021;-81
2023/01/11 03:57:35;;;;;;;6.90;3.70;;;;;;;;;;5031363;28;20021;-81
2023/01/11 04:00:01;;;;;;;12.85;3.55;;;;;;;;;;5031907;28;20450;-82
2023/01/11 04:02:33;;;;;;;14.07;4.37;;;;;;;;;;5031592;28;20037;-81
2023/01/11 04:04:58;;;;;;;;;;;;;;;;;;5031815;28;20033;-82
2023/01/11 04:07:24;;;;;;;6.37;3.57;;;;;;;;;;5030819;28;19917;-80
2023/01/11 04:09:50;;;;;;;9.27;4.00;;;;;;;;;;5032691;28;20490;-81
2023/01/11 04:12:15;;;;;;;10.57;3.33;;;;;;;;;;5033348;28;20029;-82
2023/01/11 04:14:41;;;;;;;9.33;3.77;;;;;;;;;;5034000;28;20314;-82
2023/01/11 04:17:06;;;;;;;11.97;3.93;;;;;;;;;;5030153;28;20099;-82
2023/01/11 04:19:32;;;;;;;10.77;3.67;;;;;;;;;;5031477;28;20108;-82
2023/01/11 04:21:57;;;;;;;12.47;4.13;;;;;;;;;;5030364;28;20037;-82
2023/01/11 04:24:23;;;;;;;7.17;4.57;;;;;;;;;;5029991;28;20033;-82
2023/01/11 04:26:48;;;;;;;8.77;3.97;;;;;;;;;;5031462;28;20108;-82
2023/01/11 04:29:14;;;;;;;10.57;4.03;;;;;;;;;;5029277;28;20037;-82
2023/01/11 04:31:39;;;;;;;9.40;3.63;;;;;;;;;;5030468;28;20033;-81
2023/01/11 04:34:05;;;;;;;7.73;3.97;;;;;;;;;;5031049;28;20037;-83
2023/01/11 04:36:31;;;;;;;10.47;4.50;;;;;;;;;;5029708;28;20052;-83
2023/01/11 04:38:57;;;;;;;11.57;4.73;;;;;;;;;;5031900;28;20037;-82
2023/01/11 04:44:07;;;;;;;11.37;4.00;;;;;;;;;;5031565;28;20137;-81
2023/01/11 04:46:33;;;;;;;10.23;3.87;;;;;;;;;;5029775;28;20025;-81
2023/01/11 04:48:58;;;;;;;7.40;4.07;;;;;;;;;;5030378;28;20104;-81
2023/01/11 04:51:24;;;;;;;14.93;3.83;;;;;;;;;;5029920;28;20048;-82
2023/01/11 04:53:50;;;;;;;9.90;4.30;;;;;;;;;;5030666;28;20048;-83
2023/01/11 04:56:16;;;;;;;10.43;3.20;;;;;;;;;;5019322;28;20022;-82
2023/01/11 04:58:43;;;;;;;11.07;3.87;;;;;;;;;;5019979;28;20483;-81
2023/01/11 05:01:17;;;;;;;8.37;3.10;;;;;;;;;;5029033;28;20025;-82
2023/01/11 05:03:44;;;;;;;5.67;3.30;;;;;;;;;;5013416;28;20037;-82
2023/01/11 05:06:10;;;;;;;10.30;3.30;;;;;;;;;;5040635;28;20040;-83
2023/01/11 05:08:36;;;;;;;7.90;3.93;;;;;;;;;;5031147;28;20124;-82
2023/01/11 05:11:04;;;;;;;6.93;3.13;;;;;;;;;;5022832;28;20133;-83
2023/01/11 05:13:43;;;;;;;6.83;3.70;;;;;;;;;;5017716;28;20119;-84
2023/01/11 05:16:17;;;;;;;9.53;3.73;;;;;;;;;;5013904;28;20044;-83
2023/01/11 05:18:48;;;;;;;7.80;3.80;;;;;;;;;;5029823;28;20038;-82
2023/01/11 05:21:16;;;;;;;7.88;4.40;;;;;;;;;;5029668;28;20051;-81
2023/01/11 05:23:42;;;;;;;7.13;3.03;;;;;;;;;;5029764;28;20183;-81
2023/01/11 05:26:11;;;;;;;9.13;4.23;;;;;;;;;;5029105;28;20755;-82
2023/01/11 05:28:37;;;;;;;9.00;3.70;;;;;;;;;;5022860;28;20032;-83
2023/01/11 05:31:03;;;;;;;8.53;4.70;;;;;;;;;;5010758;28;20032;-83
2023/01/11 05:33:29;;;;;;;6.47;3.87;;;;;;;;;;5001788;28;20135;-75
2023/01/11 05:36:06;;;;;;;7.90;3.33;;;;;;;;;;5028386;28;20029;-81
2023/01/11 05:38:32;;;;;;;7.40;3.40;;;;;;;;;;5027014;28;20033;-79
2023/01/11 05:41:02;;;;;;;10.23;3.90;;;;;;;;;;5023051;28;20041;-77
2023/01/11 05:43:29;;;;;;;9.30;3.50;;;;;;;;;;5029572;28;20049;-77
2023/01/11 05:45:56;;;;;;;5.53;3.20;;;;;;;;;;5028088;28;20025;-81
2023/01/11 05:48:23;;;;;;;7.17;3.13;;;;;;;;;;5029436;28;20057;-82
2023/01/11 05:50:51;;;;;;;6.00;2.90;;;;;;;;;;5028597;28;20091;-82
2023/01/11 05:53:17;;;;;;;8.73;3.93;;;;;;;;;;5011854;28;20057;-82
2023/01/11 05:55:57;;;;;;;8.03;3.10;;;;;;;;;;5029903;28;20052;-84
2023/01/11 05:58:25;;;;;;;8.73;3.17;;;;;;;;;;5021722;28;20145;-80
2023/01/11 06:00:53;;;;;;;9.73;2.57;;;;;;;;;;5007095;28;20496;-79
2023/01/11 06:03:19;;;;;;;8.43;2.80;;;;;;;;;;5020339;28;20094;-80
2023/01/11 06:05:46;;;;;;;6.03;3.50;;;;;;;;;;5026983;28;20052;-79
2023/01/11 06:08:12;;;;;;;5.33;3.03;;;;;;;;;;5029884;28;20041;-82
2023/01/11 06:10:38;;;;;;;7.73;2.93;;;;;;;;;;5023474;28;20033;-80
2023/01/11 06:15:48;;;;;;;7.60;3.33;;;;;;;;;;5016240;28;20223;-79
2023/01/11 06:18:16;;;;;;;11.50;2.83;;;;;;;;;;5024303;28;20053;-78
2023/01/11 06:20:41;;;;;;;9.67;3.37;;;;;;;;;;5024298;28;20029;-80
2023/01/11 06:23:07;;;;;;;8.47;3.13;;;;;;;;;;5025403;28;20500;-81
2023/01/11 06:25:36;;;;;;;6.33;3.30;;;;;;;;;;5025826;28;20442;-81
2023/01/11 06:28:03;;;;;;;7.67;2.93;;;;;;;;;;5018772;28;20557;-79
2023/01/11 06:30:29;;;;;;;10.60;3.57;;;;;;;;;;5024305;28;20658;-83
2023/01/11 06:32:54;;;;;;;8.30;2.93;;;;;;;;;;5023527;28;20029;-78
2023/01/11 06:35:20;;;;;;;8.13;4.13;;;;;;;;;;5026108;28;20028;-78
2023/01/11 06:37:46;;;;;;;7.03;2.80;;;;;;;;;;5021457;28;20044;-83
2023/01/11 06:40:12;;;;;;;6.67;2.77;;;;;;;;;;5026913;28;20381;-80
2023/01/11 06:42:38;;;;;;;6.47;2.67;;;;;;;;;;5019030;28;20054;-85
2023/01/11 06:45:03;;;;;;;7.63;3.03;;;;;;;;;;5025500;28;20049;-80
2023/01/11 06:47:29;;;;;;;10.17;3.97;;;;;;;;;;5027063;28;20040;-78
2023/01/11 06:49:54;;;;;;;7.23;3.13;;;;;;;;;;5022642;28;20033;-80
2023/01/11 06:52:20;;;;;;;6.60;2.63;;;;;;;;;;5025106;28;20060;-81
2023/01/11 06:54:45;;;;;;;11.27;3.20;;;;;;;;;;5027726;28;20061;-81
2023/01/11 06:57:11;;;;;;;11.07;2.60;;;;;;;;;;5023943;28;20417;-84
2023/01/11 06:59:38;;;;;;;4.33;2.37;;;;;;;;;;5021583;28;20057;-78
2023/01/11 07:02:04;;;;;;;5.70;2.63;;;;;;;;;;5027188;28;20491;-82
2023/01/11 07:04:30;;;;;;;6.43;2.67;;;;;;;;;;5029804;28;20109;-85
2023/01/11 07:06:56;;;;;;;8.23;3.10;;;;;;;;;;5030671;28;20176;-83
2023/01/11 07:09:22;;;;;;;9.70;3.33;;;;;;;;;;5026530;28;20386;-83
2023/01/11 07:11:48;;;;;;;5.27;3.10;;;;;;;;;;5023195;28;20096;-78
2023/01/11 07:14:18;;;;;;;8.90;2.83;;;;;;;;;;5025606;28;20104;-82
2023/01/11 07:16:44;;;;;;;9.20;3.00;;;;;;;;;;5026310;28;20168;-81
2023/01/11 07:19:10;;;;;;;8.47;3.17;;;;;;;;;;5021210;28;20057;-79
2023/01/11 07:21:36;;;;;;;9.67;3.43;;;;;;;;;;5025899;28;20048;-82
2023/01/11 07:24:01;;;;;;;9.33;2.70;;;;;;;;;;5029661;28;20497;-81
2023/01/11 07:26:28;;;;;;;10.87;3.40;;;;;;;;;;5023440;28;20030;-80
2023/01/11 07:28:54;;;;;;;8.20;4.33;;;;;;;;;;5024590;28;20413;-77
2023/01/11 07:31:20;;;;;;;9.13;3.30;;;;;;;;;;5030496;28;20030;-80
2023/01/11 07:33:46;;;;;;;12.33;3.37;;;;;;;;;;5040681;28;20034;-82
2023/01/11 07:36:11;;;;;;;7.60;2.73;;;;;;;;;;5029394;28;20030;-86
2023/01/11 07:38:37;;;;;;;11.47;2.83;;;;;;;;;;5026773;28;20120;-79
2023/01/11 07:43:10;;;;;;;8.93;3.30;;;;;;;;;;5025582;28;20105;-79
2023/01/11 07:43:48;;;;;;;8.27;3.43;;;;;;;;;;5028211;28;21178;-81
2023/01/11 07:46:13;;;;;;;4.67;2.63;;;;;;;;;;5035634;28;20095;-84
2023/01/11 07:48:39;;;;;;;5.97;2.70;;;;;;;;;;5030264;28;20029;-82
2023/01/11 07:51:04;;;;;;;7.57;3.47;;;;;;;;;;5034684;28;20060;-83
2023/01/11 07:53:30;;;;;;;11.20;3.37;;;;;;;;;;5034350;28;20029;-76
2023/01/11 07:55:56;;;;;;;6.93;3.30;;;;;;;;;;5025046;28;20398;-76
2023/01/11 07:58:22;;;;;;;10.17;3.77;;;;;;;;;;5016575;28;20037;-79
2023/01/11 08:00:48;;;;;;;8.20;3.17;;;;;;;;;;5025187;28;20056;-79
2023/01/11 08:03:14;;;;;;;7.67;3.00;;;;;;;;;;5026449;28;20068;-77
2023/01/11 08:05:40;;;;;;;6.27;3.20;;;;;;;;;;5024010;28;20033;-78
2023/01/11 08:08:06;;;;;;;9.97;3.80;;;;;;;;;;5015720;28;20041;-80
2023/01/11 08:10:33;;;;;;;8.90;3.73;;;;;;;;;;5001082;28;20699;-83
2023/01/11 08:15:43;;;;;;;6.97;3.33;;;;;;;;;;5015867;28;20037;-79
2023/01/11 08:18:10;;;;;;;6.23;3.07;;;;;;;;;;5017456;28;20037;-78
2023/01/11 08:20:36;;;;;;;12.40;3.90;;;;;;;;;;5023019;28;20026;-78
2023/01/11 08:23:04;;;;;;;7.67;3.83;;;;;;;;;;5024907;28;20462;-80
2023/01/11 08:25:31;;;;;;;10.43;4.03;;;;;;;;;;5016612;28;20040;-78
2023/01/11 08:28:06;;;;;;;12.30;3.97;;;;;;;;;;5015995;28;20156;-75
2023/01/11 08:30:32;;;;;;;5.47;3.70;;;;;;;;;;5025582;28;20041;-78
2023/01/11 08:33:00;;;;;;;5.80;3.07;;;;;;;;;;5027719;28;20029;-79
2023/01/11 08:35:26;;;;;;;7.73;2.90;;;;;;;;;;5021727;28;20045;-79
2023/01/11 08:37:52;;;;;;;6.83;3.20;;;;;;;;;;5017511;28;20037;-77
2023/01/11 08:40:19;;;;;;;13.60;4.13;;;;;;;;;;5022138;28;20065;-86
2023/01/11 08:42:44;;;;;;;9.20;2.90;;;;;;;;;;5020633;28;20057;-78
2023/01/11 08:45:10;;;;;;;11.73;3.67;;;;;;;;;;5026456;28;20056;-77
2023/01/11 08:47:36;;;;;;;5.50;3.00;;;;;;;;;;5022122;28;20079;-77
2023/01/11 08:50:04;;;;;;;10.87;2.93;;;;;;;;;;5021282;28;20033;-78
2023/01/11 08:52:29;;;;;;;7.83;2.87;;;;;;;;;;5019757;28;20029;-77
2023/01/11 08:54:56;;;;;;;8.97;3.47;;;;;;;;;;5025914;28;20079;-78
2023/01/11 08:57:22;;;;;;;8.13;3.97;;;;;;;;;;5024297;28;20394;-76
2023/01/11 08:59:47;;;;;;;7.07;3.17;;;;;;;;;;5016913;28;20037;-79
2023/01/11 09:02:13;;;;;;;10.70;4.00;;;;;;;;;;5020597;28;20755;-77
2023/01/11 09:04:39;;;;;;;5.37;3.20;;;;;;;;;;5023836;28;20025;-77
2023/01/11 09:07:04;;;;;;;7.20;3.53;;;;;;;;;;5020472;28;20056;-80
2023/01/11 09:09:30;;;;;;;6.93;3.10;;;;;;;;;;5024192;28;20466;-78
2023/01/11 09:12:01;;;;;;;9.97;3.70;;;;;;;;;;5025614;28;20505;-81
2023/01/11 09:14:28;;;;;;;7.67;3.37;;;;;;;;;;5027085;28;20036;-77
2023/01/11 09:16:55;;;;;;;10.00;3.40;;;;;;;;;;5023844;28;20030;-78
2023/01/11 09:19:21;;;;;;;8.70;3.30;;;;;;;;;;5022574;28;20098;-78
2023/01/11 09:21:47;;;;;;;7.30;3.40;;;;;;;;;;5023413;28;20030;-79
2023/01/11 09:24:14;;;;;;;7.53;3.07;;;;;;;;;;5017871;28;20037;-80
2023/01/11 09:26:42;;;;;;;7.60;3.17;;;;;;;;;;5026861;28;20040;-79
2023/01/11 09:29:08;;;;;;;9.90;3.23;;;;;;;;;;5022634;28;20033;-80
2023/01/11 09:31:35;;;;;;;6.23;3.23;;;;;;;;;;5026318;28;20040;-78
2023/01/11 09:34:03;;;;;;;6.90;3.00;;;;;;;;;;5021385;28;20037;-80
2023/01/11 09:36:31;;;;;;;10.70;2.93;;;;;;;;;;5018740;28;20120;-78
2023/01/11 09:39:00;;;;;;;11.27;2.93;;;;;;;;;;5018222;28;20095;-79
2023/01/11 09:42:06;;;;;;;8.13;2.83;;;;;;;;;;5024123;28;20411;-77
2023/01/11 09:44:35;;;;;;;6.37;2.70;;;;;;;;;;5020690;28;20014;-78
2023/01/11 09:47:21;;;;;;;4.67;2.40;;;;;;;;;;5017950;28;20053;-79
2023/01/11 09:49:54;;;;;;;8.93;2.73;;;;;;;;;;5019467;28;20036;-79
2023/01/11 09:52:31;;;;;;;7.63;3.23;;;;;;;;;;5020314;28;20033;-78
2023/01/11 09:54:58;;;;;;;10.10;3.03;;;;;;;;;;5022120;28;20481;-84
2023/01/11 09:58:01;;;;;;;4.47;2.57;;;;;;;;;;5004412;28;20048;-82
2023/01/11 10:00:41;;;;;;;6.13;3.50;;;;;;;;;;5023126;28;20029;-77
2023/01/11 10:03:16;;;;;;;9.57;2.67;;;;;;;;;;5019420;28;20157;-76
2023/01/11 10:05:59;;;;;;;7.07;3.03;;;;;;;;;;5019649;28;20025;-74
2023/01/11 10:08:40;;;;;;;7.50;2.77;;;;;;;;;;5020759;28;20037;-76
2023/01/11 10:11:29;;;;;;;9.37;2.17;;;;;;;;;;5023542;28;20099;-76
2023/01/11 10:14:14;;;;;;;9.60;2.77;;;;;;;;;;5017950;28;20060;-77
2023/01/11 10:16:55;;;;;;;8.93;2.50;;;;;;;;;;5025792;28;20640;-78
2023/01/11 10:19:28;;;;;;;4.40;2.20;;;;;;;;;;5021613;28;20136;-78
2023/01/11 10:22:15;;;;;;;4.43;2.30;;;;;;;;;;5023149;28;20095;-80
2023/01/11 10:24:58;;;;;;;3.87;2.33;;;;;;;;;;5022478;28;20370;-83
2023/01/11 10:27:43;;;;;;;5.30;2.80;;;;;;;;;;5022730;28;20037;-83
2023/01/11 10:36:31;;;;;;;5.18;2.47;;;;;;;;;;5027296;28;20036;-83
2023/01/11 10:39:49;;;;;;;4.53;2.53;;;;;;;;;;5018189;28;20544;-80
2023/01/11 10:42:22;;;;;;;6.83;2.60;;;;;;;;;;5021336;28;20091;-78
2023/01/11 10:45:12;;;;;;;9.10;2.97;;;;;;;;;;5023016;28;20021;-81
2023/01/11 10:48:06;;;;;;;5.93;2.23;;;;;;;;;;5007943;28;20037;-80
2023/01/11 10:50:50;;;;;;;5.87;2.00;;;;;;;;;;5032404;28;20133;-80
2023/01/11 10:53:37;;;;;;;7.33;2.17;;;;;;;;;;5030126;28;20095;-81
2023/01/11 10:56:31;;;;;;;7.97;2.77;;;;;;;;;;5030159;28;20029;-80
2023/01/11 10:59:19;;;;;;;5.43;2.30;;;;;;;;;;5025837;28;20029;-81
2023/01/11 11:01:51;;;;;;;5.80;2.37;;;;;;;;;;5025669;28;20503;-81
2023/01/11 11:04:53;;;;;;;4.47;2.30;;;;;;;;;;5028263;28;20477;-83
2023/01/11 11:07:42;;;;;;;4.53;2.22;;;;;;;;;;5020177;28;20064;-78
2023/01/11 11:10:20;;;;;;;5.23;2.70;;;;;;;;;;5030698;28;20084;-82
2023/01/11 11:13:21;;;;;;;8.13;2.47;;;;;;;;;;5031938;28;20028;-80
2023/01/11 11:16:06;;;;;;;3.63;2.13;;;;;;;;;;5015009;28;20424;-80
2023/01/11 11:18:32;;;;;;;6.53;2.87;;;;;;;;;;5028510;28;20033;-79
2023/01/11 11:21:03;;;;;;;4.10;1.87;;;;;;;;;;5010406;28;20030;-80
2023/01/11 11:23:30;;;;;;;6.17;2.67;;;;;;;;;;5022091;28;20056;-81
2023/01/11 11:25:59;;;;;;;7.85;2.50;;;;;;;;;;5004214;28;20026;-82
2023/01/11 11:28:29;;;;;;;7.68;2.60;;;;;;;;;;5027405;28;20037;-78
2023/01/11 11:30:58;;;;;;;3.25;2.17;;;;;;;;;;5035115;28;20446;-80
2023/01/11 11:33:26;;;;;;;6.00;2.97;;;;;;;;;;5030663;28;20044;-78
2023/01/11 11:36:11;;;;;;;3.58;1.83;;;;;;;;;;5028094;28;20029;-81
2023/01/11 11:38:59;;;;;;;7.65;2.00;;;;;;;;;;5036884;28;20103;-80
2023/01/11 11:41:25;;;;;;;6.07;2.05;;;;;;;;;;5030914;28;20148;-80
2023/01/11 11:43:50;;;;;;;8.57;2.33;;;;;;;;;;5025902;28;20025;-79
2023/01/11 11:46:26;;;;;;;10.05;2.95;;;;;;;;;;5031010;28;20043;-81
2023/01/11 11:49:15;;;;;;;7.15;2.97;;;;;;;;;;5024875;28;20042;-81
2023/01/11 11:51:43;;;;;;;8.80;3.17;;;;;;;;;;5024390;28;20032;-81
2023/01/11 11:54:29;;;;;;;5.78;2.42;;;;;;;;;;5030779;28;20096;-80
2023/01/11 11:56:56;;;;;;;2.35;1.55;;;;;;;;;;5001432;28;20353;-78
2023/01/11 11:59:27;;;;;;;7.80;2.85;;;;;;;;;;5023344;28;20104;-77
2023/01/11 12:02:03;;;;;;;8.07;2.90;;;;;;;;;;5031362;28;20362;-80
2023/01/11 12:04:52;;;;;;;7.97;2.58;;;;;;;;;;5024059;28;20037;-82
2023/01/11 12:07:21;;;;;;;8.65;2.75;;;;;;;;;;5020984;28;20913;-81
2023/01/11 12:10:09;;;;;;;3.60;1.98;;;;;;;;;;5023088;28;20151;-79
2023/01/11 12:12:50;;;;;;;4.85;2.20;;;;;;;;;;5019320;28;20034;-79
2023/01/11 12:15:17;;;;;;;4.23;2.07;;;;;;;;;;4998429;28;20026;-79
2023/01/11 12:17:43;;;;;;;4.40;2.35;;;;;;;;;;5023776;28;20444;-82
2023/01/11 12:20:33;;;;;;;4.15;2.00;;;;;;;;;;5023430;28;20113;-80
2023/01/11 12:23:13;;;;;;;4.25;2.42;;;;;;;;;;5022711;28;20119;-77
2023/01/11 12:25:55;;;;;;;6.63;2.83;;;;;;;;;;5026960;28;20399;-78
2023/01/11 12:28:46;;;;;;;6.55;2.78;;;;;;;;;;5004745;28;20499;-80
2023/01/11 12:31:23;;;;;;;5.57;2.47;;;;;;;;;;5021586;28;20038;-82
2023/01/11 12:34:16;;;;;;;6.75;2.55;;;;;;;;;;5021112;28;20040;-78
2023/01/11 12:36:51;;;;;;;6.63;1.90;;;;;;;;;;5022858;28;20057;-81
2023/01/11 12:39:46;;;;;;;5.00;2.65;;;;;;;;;;5021129;28;20085;-81
2023/01/11 12:42:42;;;;;;;10.55;4.07;;;;;;;;;;5020300;28;20081;-77
2023/01/11 12:45:46;;;;;;;5.25;1.90;;;;;;;;;;5025764;28;20049;-80
2023/01/11 12:48:34;;;;;;;8.10;2.90;;;;;;;;;;5024873;28;20123;-86
2023/01/11 12:51:06;;;;;;;7.25;1.70;;;;;;;;;;5025036;28;20032;-80
2023/01/11 12:53:50;;;;;;;3.47;1.92;;;;;;;;;;5028179;28;20034;-82
2023/01/11 12:57:02;;;;;;;9.73;5.68;;;;;;;;;;5030968;28;20033;-83
2023/01/11 12:59:56;;;;;;;5.30;1.88;;;;;;;;;;5031924;28;20048;-80
2023/01/11 13:02:40;;;;;;;7.25;2.40;;;;;;;;;;5028053;28;20289;-78
2023/01/11 13:05:27;;;;;;;4.82;2.40;;;;;;;;;;5027990;28;20053;-74
2023/01/11 13:08:07;;;;;;;7.32;1.90;;;;;;;;;;5022697;28;20450;-80
2023/01/11 13:11:03;;;;;;;9.20;1.95;;;;;;;;;;5022310;28;20032;-81
2023/01/11 13:14:00;;;;;;;2.80;1.77;;;;;;;;;;5023453;28;20088;-77
2023/01/11 13:16:34;;;;;;;5.65;1.92;;;;;;;;;;5022209;28;20033;-78
2023/01/11 13:19:11;;;;;;;4.20;2.05;;;;;;;;;;5018395;28;20056;-79
2023/01/11 13:21:51;;;;;;;3.20;2.08;;;;;;;;;;5040097;28;20029;-75
2023/01/11 13:24:25;;;;;;;5.05;2.10;;;;;;;;;;5023136;28;20062;-75
2023/01/11 13:26:59;;;;;;;3.90;2.08;;;;;;;;;;5024644;28;20033;-76
2023/01/11 13:29:34;;;;;;;6.47;2.40;;;;;;;;;;5025941;28;20040;-77
2023/01/11 13:32:10;;;;;;;7.97;2.42;;;;;;;;;;5019829;28;20091;-83
2023/01/11 13:35:05;;;;;;;3.17;1.98;;;;;;;;;;5009043;28;20057;-80
2023/01/11 13:37:41;;;;;;;5.75;1.90;;;;;;;;;;5019863;28;20032;-83
2023/01/11 13:40:34;;;;;;;4.93;1.88;;;;;;;;;;4996504;28;20061;-78
2023/01/11 13:43:14;;;;;;;3.85;2.28;;;;;;;;;;5020551;28;20046;-81
2023/01/11 13:45:48;;;;;;;3.45;1.90;;;;;;;;;;5018582;28;20599;-79
2023/01/11 13:48:26;;;;;;;3.85;2.45;;;;;;;;;;5020493;28;20114;-77
2023/01/11 13:51:03;;;;;;;3.75;1.65;;;;;;;;;;5016040;28;20032;-79
2023/01/11 13:53:37;;;;;;;4.38;2.30;;;;;;;;;;5019869;28;20039;-79
2023/01/11 13:56:18;;;;;;;5.20;1.95;;;;;;;;;;5019995;28;20118;-79
2023/01/11 13:59:27;;;;;;;7.53;2.10;;;;;;;;;;5019425;28;20389;-78
2023/01/11 14:02:06;;;;;;;6.35;2.50;;;;;;;;;;5022025;28;20301;-79
2023/01/11 14:04:45;;;;;;;4.28;2.28;;;;;;;;;;5025472;28;20048;-79
2023/01/11 14:07:16;;;;;;;4.65;1.88;;;;;;;;;;5021504;28;20560;-78
2023/01/11 14:09:56;;;;;;;11.60;2.60;;;;;;;;;;5021511;28;20044;-79
2023/01/11 14:12:49;;;;;;;3.67;1.48;;;;;;;;;;5023896;28;20119;-80
2023/01/11 14:15:31;;;;;;;4.18;2.25;;;;;;;;;;5021695;28;20025;-77
2023/01/11 14:18:21;;;;;;;8.32;2.83;;;;;;;;;;5020142;28;20033;-77
2023/01/11 14:21:01;;;;;;;4.20;2.58;;;;;;;;;;5023802;28;20041;-77
2023/01/11 14:23:49;;;;;;;6.30;2.70;;;;;;;;;;5026271;28;20041;-78
2023/01/11 14:26:25;;;;;;;19.42;4.90;;;;;;;;;;5018243;28;20138;-79
2023/01/11 14:29:00;;;;;;;17.20;3.83;;;;;;;;;;5020964;28;20041;-80
2023/01/11 14:31:48;;;;;;;7.07;2.78;;;;;;;;;;5027217;28;20394;-80
2023/01/11 14:34:35;;;;;;;6.38;2.95;;;;;;;;;;5026984;28;20048;-79
2023/01/11 14:37:19;;;;;;;4.78;2.45;;;;;;;;;;5014795;28;20037;-78
2023/01/11 14:40:14;;;;;;;8.43;3.15;;;;;;;;;;5014446;28;20050;-80
2023/01/11 14:42:46;;;;;;;9.40;7.40;;;;;;;;;;5014453;28;20080;-80
2023/01/11 14:45:22;;;;;;;8.15;3.22;;;;;;;;;;5016035;28;20037;-79
2023/01/11 14:48:10;;;;;;;7.15;2.70;;;;;;;;;;5019562;28;20289;-79
2023/01/11 14:50:58;;;;;;;6.40;2.25;;;;;;;;;;5021440;28;20894;-80
2023/01/11 14:53:29;;;;;;;8.98;2.70;;;;;;;;;;5021995;28;20675;-81
2023/01/11 14:55:54;;;;;;;12.20;5.25;;;;;;;;;;5020378;28;20025;-79
2023/01/11 14:58:31;;;;;;;6.72;3.22;;;;;;;;;;5016525;28;20038;-80
2023/01/11 15:00:56;;;;;;;7.38;5.65;;;;;;;;;;5020867;28;20030;-82
2023/01/11 15:03:22;;;;;;;7.93;3.97;;;;;;;;;;5024552;28;20029;-78
2023/01/11 15:05:54;;;;;;;8.45;3.13;;;;;;;;;;5026236;28;20014;-80
2023/01/11 15:08:26;;;;;;;7.28;2.72;;;;;;;;;;5023069;28;20037;-82
2023/01/11 15:11:20;;;;;;;10.30;4.10;;;;;;;;;;5023316;28;20030;-80
2023/01/11 15:13:55;;;;;;;9.52;5.20;;;;;;;;;;5021452;28;20033;-80
2023/01/11 15:19:32;;;;;;;14.45;3.90;;;;;;;;;;5027619;28;20128;-81
2023/01/11 15:21:59;;;;;;;8.27;3.33;;;;;;;;;;5025477;28;20525;-80
2023/01/11 15:24:41;;;;;;;8.40;3.60;;;;;;;;;;5010826;28;20045;-80
2023/01/11 15:27:25;;;;;;;6.70;3.08;;;;;;;;;;5021436;28;20069;-79
2023/01/11 15:29:56;;;;;;;7.38;3.25;;;;;;;;;;5019228;28;20875;-81
2023/01/11 15:32:33;;;;;;;12.07;3.85;;;;;;;;;;5005160;28;20033;-80
2023/01/11 15:35:24;;;;;;;6.55;3.45;;;;;;;;;;5026960;28;20034;-82
2023/01/11 15:37:56;;;;;;;5.55;3.00;;;;;;;;;;5023810;28;20048;-82
2023/01/11 15:40:29;;;;;;;8.32;5.78;;;;;;;;;;5018662;28;20056;-83
2023/01/11 15:43:04;;;;;;;9.15;4.35;;;;;;;;;;5020265;28;20053;-82
2023/01/11 15:48:57;;;;;;;11.25;3.33;;;;;;;;;;5024953;28;20444;-76
2023/01/11 15:52:03;;;;;;;10.95;3.58;;;;;;;;;;5018631;28;20022;-80